sensor_id;sensor_type;location;lat;lon;timestamp;pressure;altitude;pressure_sealevel;temperature;humidity
42411;BME280;28056;51.112;0.984;2022-10-26T00:04:48;100014.45;;;19.32;50.98
42411;BME280;28056;51.112;0.984;2022-10-26T00:07:16;100011.40;;;19.54;50.47
42411;BME280;28056;51.112;0.984;2022-10-26T00:09:43;100005.72;;;19.41;50.76
42411;BME280;28056;51.112;0.984;2022-10-26T00:12:11;99998.90;;;19.47;50.82
42411;BME280;28056;51.112;0.984;2022-10-26T00:14:39;99991.78;;;19.60;50.67
42411;BME280;28056;51.112;0.984;2022-10-26T00:17:07;99986.23;;;19.50;50.62
42411;BME280;28056;51.112;0.984;2022-10-26T00:19:35;99982.91;;;19.41;50.66
42411;BME280;28056;51.112;0.984;2022-10-26T00:22:02;99979.08;;;19.42;50.62
42411;BME280;28056;51.112;0.984;2022-10-26T00:24:30;99979.46;;;19.34;50.60
42411;BME280;28056;51.112;0.984;2022-10-26T00:26:57;99979.32;;;19.33;50.58
42411;BME280;28056;51.112;0.984;2022-10-26T00:29:25;99974.51;;;19.27;50.59
42411;BME280;28056;51.112;0.984;2022-10-26T00:31:52;99977.09;;;19.44;50.76
42411;BME280;28056;51.112;0.984;2022-10-26T00:34:20;99974.53;;;18.70;51.58
42411;BME280;28056;51.112;0.984;2022-10-26T00:36:48;99974.09;;;18.84;51.35
42411;BME280;28056;51.112;0.984;2022-10-26T00:39:15;99978.26;;;18.86;51.28
42411;BME280;28056;51.112;0.984;2022-10-26T00:41:42;99977.49;;;19.06;51.27
42411;BME280;28056;51.112;0.984;2022-10-26T00:45:19;99975.60;;;19.20;51.50
42411;BME280;28056;51.112;0.984;2022-10-26T00:47:48;99975.82;;;18.64;52.00
42411;BME280;28056;51.112;0.984;2022-10-26T00:50:19;99973.96;;;18.82;52.11
42411;BME280;28056;51.112;0.984;2022-10-26T00:52:48;99970.99;;;17.92;54.20
42411;BME280;28056;51.112;0.984;2022-10-26T00:55:18;99972.48;;;18.87;52.45
42411;BME280;28056;51.112;0.984;2022-10-26T00:57:49;99980.55;;;19.07;52.00
42411;BME280;28056;51.112;0.984;2022-10-26T01:00:18;99983.44;;;18.99;51.71
42411;BME280;28056;51.112;0.984;2022-10-26T01:02:46;99981.75;;;19.08;51.61
42411;BME280;28056;51.112;0.984;2022-10-26T01:05:17;99983.05;;;19.12;51.64
42411;BME280;28056;51.112;0.984;2022-10-26T01:07:47;99978.55;;;19.18;51.64
42411;BME280;28056;51.112;0.984;2022-10-26T01:10:15;99971.59;;;19.24;51.51
42411;BME280;28056;51.112;0.984;2022-10-26T01:12:42;99968.08;;;19.13;51.88
42411;BME280;28056;51.112;0.984;2022-10-26T01:15:11;99967.78;;;19.20;51.86
42411;BME280;28056;51.112;0.984;2022-10-26T01:17:52;99960.63;;;19.05;52.06
42411;BME280;28056;51.112;0.984;2022-10-26T01:20:45;99957.76;;;19.21;52.10
42411;BME280;28056;51.112;0.984;2022-10-26T01:23:25;99957.58;;;19.27;51.73
42411;BME280;28056;51.112;0.984;2022-10-26T01:26:25;99960.57;;;19.08;51.54
42411;BME280;28056;51.112;0.984;2022-10-26T01:29:13;99967.77;;;19.46;51.72
42411;BME280;28056;51.112;0.984;2022-10-26T01:31:51;99961.22;;;19.47;51.76
42411;BME280;28056;51.112;0.984;2022-10-26T01:34:26;99960.07;;;19.45;51.61
42411;BME280;28056;51.112;0.984;2022-10-26T01:36:59;99959.38;;;19.07;51.94
42411;BME280;28056;51.112;0.984;2022-10-26T01:39:36;99958.16;;;19.24;51.64
42411;BME280;28056;51.112;0.984;2022-10-26T01:42:04;99956.43;;;19.46;51.58
42411;BME280;28056;51.112;0.984;2022-10-26T01:44:37;99947.17;;;18.66;52.50
42411;BME280;28056;51.112;0.984;2022-10-26T01:47:06;99937.06;;;19.45;51.78
42411;BME280;28056;51.112;0.984;2022-10-26T01:49:39;99934.45;;;19.35;51.38
42411;BME280;28056;51.112;0.984;2022-10-26T01:52:08;99937.78;;;19.41;51.43
42411;BME280;28056;51.112;0.984;2022-10-26T01:54:36;99934.74;;;19.42;51.34
42411;BME280;28056;51.112;0.984;2022-10-26T01:57:06;99935.36;;;19.47;51.64
42411;BME280;28056;51.112;0.984;2022-10-26T01:59:48;99950.13;;;19.53;51.30
42411;BME280;28056;51.112;0.984;2022-10-26T02:02:28;99961.76;;;19.56;51.18
42411;BME280;28056;51.112;0.984;2022-10-26T02:05:16;99962.14;;;19.01;52.09
42411;BME280;28056;51.112;0.984;2022-10-26T02:07:53;99969.95;;;19.37;51.47
42411;BME280;28056;51.112;0.984;2022-10-26T02:10:29;99964.34;;;19.47;51.35
42411;BME280;28056;51.112;0.984;2022-10-26T02:13:05;99957.83;;;19.55;51.18
42411;BME280;28056;51.112;0.984;2022-10-26T02:15:40;99941.93;;;19.52;51.20
42411;BME280;28056;51.112;0.984;2022-10-26T02:18:19;99936.39;;;19.51;51.08
42411;BME280;28056;51.112;0.984;2022-10-26T02:20:52;99935.23;;;19.34;51.14
42411;BME280;28056;51.112;0.984;2022-10-26T02:23:23;99934.56;;;19.49;51.08
42411;BME280;28056;51.112;0.984;2022-10-26T02:25:57;99933.75;;;19.48;51.16
42411;BME280;28056;51.112;0.984;2022-10-26T02:28:29;99936.22;;;19.71;51.03
42411;BME280;28056;51.112;0.984;2022-10-26T02:31:00;99939.93;;;19.44;51.24
42411;BME280;28056;51.112;0.984;2022-10-26T02:33:32;99943.76;;;19.44;51.30
42411;BME280;28056;51.112;0.984;2022-10-26T02:36:04;99949.12;;;19.40;51.42
42411;BME280;28056;51.112;0.984;2022-10-26T02:38:33;99950.54;;;19.16;51.31
42411;BME280;28056;51.112;0.984;2022-10-26T02:41:02;99941.24;;;19.17;51.26
42411;BME280;28056;51.112;0.984;2022-10-26T02:43:33;99940.66;;;19.41;51.29
42411;BME280;28056;51.112;0.984;2022-10-26T02:46:06;99933.72;;;19.19;51.33
42411;BME280;28056;51.112;0.984;2022-10-26T02:48:35;99936.16;;;19.43;51.38
42411;BME280;28056;51.112;0.984;2022-10-26T02:51:08;99930.97;;;19.35;51.48
42411;BME280;28056;51.112;0.984;2022-10-26T02:53:44;99931.47;;;19.40;51.39
42411;BME280;28056;51.112;0.984;2022-10-26T02:56:17;99930.05;;;19.35;51.47
42411;BME280;28056;51.112;0.984;2022-10-26T02:58:50;99930.26;;;19.37;51.49
42411;BME280;28056;51.112;0.984;2022-10-26T03:01:19;99926.66;;;19.32;51.59
42411;BME280;28056;51.112;0.984;2022-10-26T03:03:47;99927.66;;;18.87;53.05
42411;BME280;28056;51.112;0.984;2022-10-26T03:06:20;99930.23;;;19.44;52.50
42411;BME280;28056;51.112;0.984;2022-10-26T03:08:53;99925.89;;;19.09;52.27
42411;BME280;28056;51.112;0.984;2022-10-26T03:11:20;99919.28;;;19.08;52.34
42411;BME280;28056;51.112;0.984;2022-10-26T03:13:48;99908.85;;;19.06;52.34
42411;BME280;28056;51.112;0.984;2022-10-26T03:16:16;99908.67;;;19.28;52.24
42411;BME280;28056;51.112;0.984;2022-10-26T03:18:43;99915.89;;;18.86;53.00
42411;BME280;28056;51.112;0.984;2022-10-26T03:21:11;99918.84;;;19.35;52.95
42411;BME280;28056;51.112;0.984;2022-10-26T03:23:38;99908.90;;;19.27;53.03
42411;BME280;28056;51.112;0.984;2022-10-26T03:26:06;99907.12;;;19.24;53.11
42411;BME280;28056;51.112;0.984;2022-10-26T03:28:34;99921.21;;;19.26;53.08
42411;BME280;28056;51.112;0.984;2022-10-26T03:31:02;99916.27;;;19.11;53.31
42411;BME280;28056;51.112;0.984;2022-10-26T03:33:29;99924.73;;;19.07;53.29
42411;BME280;28056;51.112;0.984;2022-10-26T03:35:57;99925.55;;;19.09;53.46
42411;BME280;28056;51.112;0.984;2022-10-26T03:38:24;99929.62;;;19.04;53.52
42411;BME280;28056;51.112;0.984;2022-10-26T03:40:52;99932.71;;;19.07;53.60
42411;BME280;28056;51.112;0.984;2022-10-26T03:43:19;99934.86;;;19.22;53.70
42411;BME280;28056;51.112;0.984;2022-10-26T03:45:47;99931.23;;;18.78;53.79
42411;BME280;28056;51.112;0.984;2022-10-26T03:48:15;99930.45;;;19.03;54.35
42411;BME280;28056;51.112;0.984;2022-10-26T03:50:42;99924.74;;;18.77;54.09
42411;BME280;28056;51.112;0.984;2022-10-26T03:53:10;99915.10;;;19.19;54.05
42411;BME280;28056;51.112;0.984;2022-10-26T03:55:38;99924.37;;;19.04;54.22
42411;BME280;28056;51.112;0.984;2022-10-26T03:58:06;99925.23;;;18.87;53.89
42411;BME280;28056;51.112;0.984;2022-10-26T04:00:33;99921.12;;;18.84;54.15
42411;BME280;28056;51.112;0.984;2022-10-26T04:03:01;99917.36;;;18.19;56.29
42411;BME280;28056;51.112;0.984;2022-10-26T04:05:29;99919.80;;;18.32;57.04
42411;BME280;28056;51.112;0.984;2022-10-26T04:07:58;99922.19;;;18.75;56.33
42411;BME280;28056;51.112;0.984;2022-10-26T04:10:26;99923.56;;;18.73;56.25
42411;BME280;28056;51.112;0.984;2022-10-26T04:12:54;99926.70;;;18.58;56.09
42411;BME280;28056;51.112;0.984;2022-10-26T04:15:22;99935.23;;;18.52;56.22
42411;BME280;28056;51.112;0.984;2022-10-26T04:17:55;99938.64;;;18.53;55.89
42411;BME280;28056;51.112;0.984;2022-10-26T04:20:22;99942.75;;;18.78;55.85
42411;BME280;28056;51.112;0.984;2022-10-26T04:22:57;99940.80;;;18.59;56.48
42411;BME280;28056;51.112;0.984;2022-10-26T04:25:25;99943.66;;;18.71;56.13
42411;BME280;28056;51.112;0.984;2022-10-26T04:27:52;99947.11;;;18.89;56.09
42411;BME280;28056;51.112;0.984;2022-10-26T04:30:19;99949.64;;;18.81;56.20
42411;BME280;28056;51.112;0.984;2022-10-26T04:32:47;99955.88;;;18.99;56.01
42411;BME280;28056;51.112;0.984;2022-10-26T04:35:15;99956.91;;;18.88;56.28
42411;BME280;28056;51.112;0.984;2022-10-26T04:37:42;99952.40;;;19.08;56.01
42411;BME280;28056;51.112;0.984;2022-10-26T04:40:10;99951.21;;;18.70;56.06
42411;BME280;28056;51.112;0.984;2022-10-26T04:42:41;99956.27;;;19.19;55.87
42411;BME280;28056;51.112;0.984;2022-10-26T04:45:10;99962.69;;;19.08;55.60
42411;BME280;28056;51.112;0.984;2022-10-26T04:47:38;99968.39;;;19.30;55.54
42411;BME280;28056;51.112;0.984;2022-10-26T04:50:08;99973.28;;;19.11;55.41
42411;BME280;28056;51.112;0.984;2022-10-26T04:52:36;99975.39;;;19.38;55.27
42411;BME280;28056;51.112;0.984;2022-10-26T04:55:05;99976.82;;;19.16;55.09
42411;BME280;28056;51.112;0.984;2022-10-26T04:57:33;99977.71;;;19.24;54.92
42411;BME280;28056;51.112;0.984;2022-10-26T05:00:03;99978.73;;;19.35;55.48
42411;BME280;28056;51.112;0.984;2022-10-26T05:02:30;99981.24;;;18.97;55.20
42411;BME280;28056;51.112;0.984;2022-10-26T05:04:58;99977.75;;;18.82;55.59
42411;BME280;28056;51.112;0.984;2022-10-26T05:07:26;99973.85;;;18.97;55.35
42411;BME280;28056;51.112;0.984;2022-10-26T05:09:53;99969.74;;;19.28;55.18
42411;BME280;28056;51.112;0.984;2022-10-26T05:12:21;99966.31;;;19.20;55.38
42411;BME280;28056;51.112;0.984;2022-10-26T05:14:48;99974.70;;;19.04;55.55
42411;BME280;28056;51.112;0.984;2022-10-26T05:17:16;99977.17;;;18.85;56.01
42411;BME280;28056;51.112;0.984;2022-10-26T05:19:43;99977.35;;;19.34;54.96
42411;BME280;28056;51.112;0.984;2022-10-26T05:22:11;99974.89;;;19.58;54.87
42411;BME280;28056;51.112;0.984;2022-10-26T05:24:38;99975.64;;;19.49;54.81
42411;BME280;28056;51.112;0.984;2022-10-26T05:27:06;99976.44;;;19.42;54.85
42411;BME280;28056;51.112;0.984;2022-10-26T05:29:33;99976.84;;;19.25;55.21
42411;BME280;28056;51.112;0.984;2022-10-26T05:32:01;99987.15;;;19.19;55.27
42411;BME280;28056;51.112;0.984;2022-10-26T05:34:29;99987.63;;;19.36;54.93
42411;BME280;28056;51.112;0.984;2022-10-26T05:36:56;99998.85;;;19.20;55.59
42411;BME280;28056;51.112;0.984;2022-10-26T05:39:23;99999.07;;;19.28;55.76
42411;BME280;28056;51.112;0.984;2022-10-26T05:41:51;100003.54;;;19.09;55.82
42411;BME280;28056;51.112;0.984;2022-10-26T05:44:19;100005.36;;;19.17;55.96
42411;BME280;28056;51.112;0.984;2022-10-26T05:46:46;100004.67;;;19.41;55.72
42411;BME280;28056;51.112;0.984;2022-10-26T05:49:14;100008.43;;;19.63;55.02
42411;BME280;28056;51.112;0.984;2022-10-26T05:51:42;100009.31;;;19.54;54.80
42411;BME280;28056;51.112;0.984;2022-10-26T05:54:09;100013.12;;;19.78;54.62
42411;BME280;28056;51.112;0.984;2022-10-26T05:56:38;100015.74;;;19.86;54.41
42411;BME280;28056;51.112;0.984;2022-10-26T05:59:11;100029.69;;;19.94;54.42
42411;BME280;28056;51.112;0.984;2022-10-26T06:01:49;100028.77;;;19.83;54.22
42411;BME280;28056;51.112;0.984;2022-10-26T06:04:27;100033.42;;;20.00;53.96
42411;BME280;28056;51.112;0.984;2022-10-26T06:06:56;100046.49;;;20.04;53.72
42411;BME280;28056;51.112;0.984;2022-10-26T06:09:25;100041.73;;;20.00;53.49
42411;BME280;28056;51.112;0.984;2022-10-26T06:11:53;100045.51;;;19.80;53.18
42411;BME280;28056;51.112;0.984;2022-10-26T06:14:20;100049.79;;;19.75;53.07
42411;BME280;28056;51.112;0.984;2022-10-26T06:16:57;100050.23;;;19.67;53.04
42411;BME280;28056;51.112;0.984;2022-10-26T06:19:36;100047.94;;;19.78;53.04
42411;BME280;28056;51.112;0.984;2022-10-26T06:22:20;100050.15;;;19.69;53.30
42411;BME280;28056;51.112;0.984;2022-10-26T06:25:01;100050.30;;;19.07;54.71
42411;BME280;28056;51.112;0.984;2022-10-26T06:27:37;100057.33;;;18.77;56.13
42411;BME280;28056;51.112;0.984;2022-10-26T06:30:09;100060.40;;;18.57;56.43
42411;BME280;28056;51.112;0.984;2022-10-26T06:32:38;100060.23;;;17.55;59.18
42411;BME280;28056;51.112;0.984;2022-10-26T06:35:19;100062.60;;;16.65;61.77
42411;BME280;28056;51.112;0.984;2022-10-26T06:37:52;100064.77;;;15.76;66.19
42411;BME280;28056;51.112;0.984;2022-10-26T06:40:20;100071.80;;;15.47;67.69
42411;BME280;28056;51.112;0.984;2022-10-26T06:42:49;100074.86;;;16.32;65.34
42411;BME280;28056;51.112;0.984;2022-10-26T06:45:18;100075.43;;;15.33;68.55
42411;BME280;28056;51.112;0.984;2022-10-26T06:47:51;100081.63;;;15.42;69.28
42411;BME280;28056;51.112;0.984;2022-10-26T06:50:30;100087.54;;;16.05;67.48
42411;BME280;28056;51.112;0.984;2022-10-26T06:53:08;100095.03;;;15.35;70.55
42411;BME280;28056;51.112;0.984;2022-10-26T06:55:41;100101.89;;;14.30;74.38
42411;BME280;28056;51.112;0.984;2022-10-26T06:58:14;100103.99;;;15.41;72.16
42411;BME280;28056;51.112;0.984;2022-10-26T07:00:44;100109.50;;;14.28;74.43
42411;BME280;28056;51.112;0.984;2022-10-26T07:03:12;100116.13;;;15.38;73.04
42411;BME280;28056;51.112;0.984;2022-10-26T07:05:40;100120.45;;;15.04;72.07
42411;BME280;28056;51.112;0.984;2022-10-26T07:08:07;100125.34;;;15.29;71.58
42411;BME280;28056;51.112;0.984;2022-10-26T07:10:35;100129.34;;;15.39;72.00
42411;BME280;28056;51.112;0.984;2022-10-26T07:13:02;100126.25;;;15.89;70.26
42411;BME280;28056;51.112;0.984;2022-10-26T07:15:30;100132.28;;;15.22;70.80
42411;BME280;28056;51.112;0.984;2022-10-26T07:17:58;100134.62;;;15.36;71.57
42411;BME280;28056;51.112;0.984;2022-10-26T07:20:26;100135.26;;;15.84;70.06
42411;BME280;28056;51.112;0.984;2022-10-26T07:22:54;100145.70;;;15.31;69.75
42411;BME280;28056;51.112;0.984;2022-10-26T07:25:23;100151.16;;;15.54;70.18
42411;BME280;28056;51.112;0.984;2022-10-26T07:27:55;100151.41;;;15.66;69.93
42411;BME280;28056;51.112;0.984;2022-10-26T07:30:22;100153.50;;;15.24;69.70
42411;BME280;28056;51.112;0.984;2022-10-26T07:32:54;100158.92;;;15.59;69.05
42411;BME280;28056;51.112;0.984;2022-10-26T07:35:24;100163.51;;;15.41;69.78
42411;BME280;28056;51.112;0.984;2022-10-26T07:37:56;100164.17;;;15.92;67.62
42411;BME280;28056;51.112;0.984;2022-10-26T07:40:24;100161.55;;;15.09;68.33
42411;BME280;28056;51.112;0.984;2022-10-26T07:42:51;100163.69;;;15.09;67.10
42411;BME280;28056;51.112;0.984;2022-10-26T07:45:19;100162.70;;;16.61;64.13
42411;BME280;28056;51.112;0.984;2022-10-26T07:47:46;100162.96;;;15.01;67.43
42411;BME280;28056;51.112;0.984;2022-10-26T07:50:16;100167.38;;;15.58;66.03
42411;BME280;28056;51.112;0.984;2022-10-26T07:52:43;100176.53;;;15.59;66.58
42411;BME280;28056;51.112;0.984;2022-10-26T07:55:12;100184.34;;;15.20;66.50
42411;BME280;28056;51.112;0.984;2022-10-26T07:57:39;100190.02;;;15.56;65.75
42411;BME280;28056;51.112;0.984;2022-10-26T08:00:09;100190.96;;;15.03;66.67
42411;BME280;28056;51.112;0.984;2022-10-26T08:02:37;100200.21;;;16.39;65.12
42411;BME280;28056;51.112;0.984;2022-10-26T08:05:05;100199.80;;;15.82;65.41
42411;BME280;28056;51.112;0.984;2022-10-26T08:07:33;100206.51;;;15.61;66.02
42411;BME280;28056;51.112;0.984;2022-10-26T08:10:00;100207.61;;;16.73;63.07
42411;BME280;28056;51.112;0.984;2022-10-26T08:12:29;100207.56;;;15.68;65.17
42411;BME280;28056;51.112;0.984;2022-10-26T08:14:56;100207.93;;;15.81;65.24
42411;BME280;28056;51.112;0.984;2022-10-26T08:17:24;100209.97;;;15.45;66.12
42411;BME280;28056;51.112;0.984;2022-10-26T08:19:51;100209.48;;;15.90;65.75
42411;BME280;28056;51.112;0.984;2022-10-26T08:22:19;100216.19;;;16.39;65.01
42411;BME280;28056;51.112;0.984;2022-10-26T08:24:46;100216.28;;;15.17;67.29
42411;BME280;28056;51.112;0.984;2022-10-26T08:27:15;100215.34;;;16.54;65.19
42411;BME280;28056;51.112;0.984;2022-10-26T08:29:42;100220.60;;;16.89;64.31
42411;BME280;28056;51.112;0.984;2022-10-26T08:32:10;100227.39;;;16.72;65.34
42411;BME280;28056;51.112;0.984;2022-10-26T08:34:37;100232.41;;;15.92;67.73
42411;BME280;28056;51.112;0.984;2022-10-26T08:37:05;100237.73;;;16.52;66.74
42411;BME280;28056;51.112;0.984;2022-10-26T08:39:33;100246.15;;;17.32;63.98
42411;BME280;28056;51.112;0.984;2022-10-26T08:42:04;100238.75;;;15.74;67.87
42411;BME280;28056;51.112;0.984;2022-10-26T08:44:37;100236.34;;;16.58;66.78
42411;BME280;28056;51.112;0.984;2022-10-26T08:47:14;100242.85;;;16.37;66.07
42411;BME280;28056;51.112;0.984;2022-10-26T08:49:48;100249.40;;;16.62;66.24
42411;BME280;28056;51.112;0.984;2022-10-26T08:52:20;100254.99;;;16.06;66.89
42411;BME280;28056;51.112;0.984;2022-10-26T08:54:51;100261.90;;;16.00;68.00
42411;BME280;28056;51.112;0.984;2022-10-26T08:57:25;100256.23;;;15.93;69.10
42411;BME280;28056;51.112;0.984;2022-10-26T08:59:57;100264.83;;;15.92;69.85
42411;BME280;28056;51.112;0.984;2022-10-26T09:02:26;100269.06;;;16.44;68.75
42411;BME280;28056;51.112;0.984;2022-10-26T09:04:55;100267.17;;;16.15;68.93
42411;BME280;28056;51.112;0.984;2022-10-26T09:07:36;100270.80;;;16.41;67.66
42411;BME280;28056;51.112;0.984;2022-10-26T09:10:16;100265.99;;;15.59;69.52
42411;BME280;28056;51.112;0.984;2022-10-26T09:12:53;100272.27;;;15.62;70.18
42411;BME280;28056;51.112;0.984;2022-10-26T09:15:27;100288.85;;;16.13;69.42
42411;BME280;28056;51.112;0.984;2022-10-26T09:18:07;100280.40;;;15.98;69.22
42411;BME280;28056;51.112;0.984;2022-10-26T09:20:49;100275.89;;;15.79;70.94
42411;BME280;28056;51.112;0.984;2022-10-26T09:23:30;100289.87;;;16.22;68.61
42411;BME280;28056;51.112;0.984;2022-10-26T09:26:09;100296.27;;;15.49;69.89
42411;BME280;28056;51.112;0.984;2022-10-26T09:28:40;100294.41;;;15.59;70.61
42411;BME280;28056;51.112;0.984;2022-10-26T09:31:15;100288.37;;;15.67;70.80
42411;BME280;28056;51.112;0.984;2022-10-26T09:33:42;100291.81;;;15.96;69.92
42411;BME280;28056;51.112;0.984;2022-10-26T09:36:12;100296.68;;;15.93;69.62
42411;BME280;28056;51.112;0.984;2022-10-26T09:38:50;100298.05;;;16.76;68.39
42411;BME280;28056;51.112;0.984;2022-10-26T09:41:26;100304.20;;;16.72;68.45
42411;BME280;28056;51.112;0.984;2022-10-26T09:44:00;100300.20;;;15.48;71.88
42411;BME280;28056;51.112;0.984;2022-10-26T09:46:33;100296.42;;;15.91;70.52
42411;BME280;28056;51.112;0.984;2022-10-26T09:49:04;100288.27;;;15.58;72.58
42411;BME280;28056;51.112;0.984;2022-10-26T09:51:35;100290.56;;;15.97;70.52
42411;BME280;28056;51.112;0.984;2022-10-26T09:54:07;100289.72;;;16.60;70.05
42411;BME280;28056;51.112;0.984;2022-10-26T09:56:40;100296.55;;;16.25;69.67
42411;BME280;28056;51.112;0.984;2022-10-26T09:59:09;100303.34;;;15.78;70.45
42411;BME280;28056;51.112;0.984;2022-10-26T10:01:38;100303.14;;;15.50;71.92
42411;BME280;28056;51.112;0.984;2022-10-26T10:04:16;100302.30;;;16.29;69.35
42411;BME280;28056;51.112;0.984;2022-10-26T10:06:45;100306.63;;;15.69;71.34
42411;BME280;28056;51.112;0.984;2022-10-26T10:09:14;100313.46;;;16.65;69.55
42411;BME280;28056;51.112;0.984;2022-10-26T10:11:45;100320.19;;;16.04;70.12
42411;BME280;28056;51.112;0.984;2022-10-26T10:14:15;100311.77;;;16.06;70.47
42411;BME280;28056;51.112;0.984;2022-10-26T10:16:50;100320.87;;;15.43;71.57
42411;BME280;28056;51.112;0.984;2022-10-26T10:19:22;100328.23;;;16.87;68.79
42411;BME280;28056;51.112;0.984;2022-10-26T10:21:53;100337.21;;;15.97;69.86
42411;BME280;28056;51.112;0.984;2022-10-26T10:24:23;100345.15;;;16.23;69.14
42411;BME280;28056;51.112;0.984;2022-10-26T10:26:57;100340.93;;;16.74;68.65
42411;BME280;28056;51.112;0.984;2022-10-26T10:29:25;100343.00;;;16.01;70.12
42411;BME280;28056;51.112;0.984;2022-10-26T10:31:57;100356.37;;;16.61;68.95
42411;BME280;28056;51.112;0.984;2022-10-26T10:34:26;100347.88;;;15.63;70.58
42411;BME280;28056;51.112;0.984;2022-10-26T10:36:56;100363.94;;;16.63;68.29
42411;BME280;28056;51.112;0.984;2022-10-26T10:39:36;100363.56;;;16.64;68.86
42411;BME280;28056;51.112;0.984;2022-10-26T10:42:16;100364.04;;;16.62;69.42
42411;BME280;28056;51.112;0.984;2022-10-26T10:44:45;100369.73;;;15.76;69.94
42411;BME280;28056;51.112;0.984;2022-10-26T10:47:22;100369.31;;;15.77;69.99
42411;BME280;28056;51.112;0.984;2022-10-26T10:49:52;100380.54;;;15.43;71.29
42411;BME280;28056;51.112;0.984;2022-10-26T10:52:26;100384.53;;;16.91;67.23
42411;BME280;28056;51.112;0.984;2022-10-26T10:55:07;100383.05;;;16.36;68.89
42411;BME280;28056;51.112;0.984;2022-10-26T10:57:48;100382.16;;;15.99;69.06
42411;BME280;28056;51.112;0.984;2022-10-26T11:00:20;100398.43;;;16.80;67.55
42411;BME280;28056;51.112;0.984;2022-10-26T11:03:04;100393.27;;;16.89;67.01
42411;BME280;28056;51.112;0.984;2022-10-26T11:05:47;100389.69;;;16.26;67.99
42411;BME280;28056;51.112;0.984;2022-10-26T11:08:21;100393.75;;;16.18;70.15
42411;BME280;28056;51.112;0.984;2022-10-26T11:10:58;100402.61;;;16.95;67.21
42411;BME280;28056;51.112;0.984;2022-10-26T11:13:31;100406.37;;;16.77;68.63
42411;BME280;28056;51.112;0.984;2022-10-26T11:16:02;100392.12;;;17.10;66.05
42411;BME280;28056;51.112;0.984;2022-10-26T11:18:33;100401.86;;;16.75;65.62
42411;BME280;28056;51.112;0.984;2022-10-26T11:21:16;100405.07;;;17.44;63.81
42411;BME280;28056;51.112;0.984;2022-10-26T11:23:49;100411.22;;;18.62;62.77
42411;BME280;28056;51.112;0.984;2022-10-26T11:26:25;100405.47;;;18.18;59.68
42411;BME280;28056;51.112;0.984;2022-10-26T11:28:58;100407.09;;;17.63;61.21
42411;BME280;28056;51.112;0.984;2022-10-26T11:31:31;100417.92;;;17.08;60.74
42411;BME280;28056;51.112;0.984;2022-10-26T11:34:12;100413.77;;;16.66;62.42
42411;BME280;28056;51.112;0.984;2022-10-26T11:36:46;100421.48;;;17.31;61.26
42411;BME280;28056;51.112;0.984;2022-10-26T11:39:23;100425.68;;;17.39;60.49
42411;BME280;28056;51.112;0.984;2022-10-26T11:41:55;100430.95;;;17.32;62.89
42411;BME280;28056;51.112;0.984;2022-10-26T11:44:30;100426.32;;;18.22;59.91
42411;BME280;28056;51.112;0.984;2022-10-26T11:47:03;100435.88;;;17.36;62.19
42411;BME280;28056;51.112;0.984;2022-10-26T11:49:40;100435.07;;;17.59;61.51
42411;BME280;28056;51.112;0.984;2022-10-26T11:52:12;100436.79;;;17.03;62.52
42411;BME280;28056;51.112;0.984;2022-10-26T11:54:45;100445.14;;;17.22;63.34
42411;BME280;28056;51.112;0.984;2022-10-26T11:57:15;100439.53;;;17.60;63.82
42411;BME280;28056;51.112;0.984;2022-10-26T11:59:46;100443.09;;;18.15;62.51
42411;BME280;28056;51.112;0.984;2022-10-26T12:02:19;100450.04;;;18.29;60.56
42411;BME280;28056;51.112;0.984;2022-10-26T12:04:51;100432.19;;;19.43;57.66
42411;BME280;28056;51.112;0.984;2022-10-26T12:07:23;100447.57;;;18.00;58.55
42411;BME280;28056;51.112;0.984;2022-10-26T12:09:53;100443.74;;;18.32;60.20
42411;BME280;28056;51.112;0.984;2022-10-26T12:12:29;100445.23;;;18.57;58.72
42411;BME280;28056;51.112;0.984;2022-10-26T12:15:08;100446.23;;;18.66;59.74
42411;BME280;28056;51.112;0.984;2022-10-26T12:17:48;100449.04;;;18.57;57.34
42411;BME280;28056;51.112;0.984;2022-10-26T12:20:46;100453.99;;;18.44;58.14
42411;BME280;28056;51.112;0.984;2022-10-26T12:23:16;100454.46;;;17.37;60.50
42411;BME280;28056;51.112;0.984;2022-10-26T12:25:44;100457.97;;;18.45;59.30
42411;BME280;28056;51.112;0.984;2022-10-26T12:28:38;100456.45;;;18.17;59.81
42411;BME280;28056;51.112;0.984;2022-10-26T12:33:28;100471.97;;;18.44;59.21
42411;BME280;28056;51.112;0.984;2022-10-26T12:35:56;100484.53;;;18.21;59.13
42411;BME280;28056;51.112;0.984;2022-10-26T12:38:54;100480.42;;;18.93;59.63
42411;BME280;28056;51.112;0.984;2022-10-26T12:41:24;100476.68;;;19.42;56.75
42411;BME280;28056;51.112;0.984;2022-10-26T12:44:30;100481.37;;;18.01;57.72
42411;BME280;28056;51.112;0.984;2022-10-26T12:46:57;100481.35;;;18.88;57.06
42411;BME280;28056;51.112;0.984;2022-10-26T12:50:00;100492.71;;;19.46;56.76
42411;BME280;28056;51.112;0.984;2022-10-26T12:52:38;100495.26;;;19.04;55.18
42411;BME280;28056;51.112;0.984;2022-10-26T12:56:15;100496.38;;;19.17;56.17
42411;BME280;28056;51.112;0.984;2022-10-26T12:58:58;100506.39;;;19.29;54.20
42411;BME280;28056;51.112;0.984;2022-10-26T13:01:38;100528.71;;;19.01;53.76
42411;BME280;28056;51.112;0.984;2022-10-26T13:04:23;100524.17;;;19.95;52.18
42411;BME280;28056;51.112;0.984;2022-10-26T13:07:16;100530.81;;;18.93;53.67
42411;BME280;28056;51.112;0.984;2022-10-26T13:09:47;100527.65;;;17.90;56.12
42411;BME280;28056;51.112;0.984;2022-10-26T13:12:17;100528.41;;;19.10;55.84
42411;BME280;28056;51.112;0.984;2022-10-26T13:14:55;100534.10;;;18.13;57.56
42411;BME280;28056;51.112;0.984;2022-10-26T13:17:27;100530.29;;;20.14;56.35
42411;BME280;28056;51.112;0.984;2022-10-26T13:19:56;100534.27;;;21.14;52.51
42411;BME280;28056;51.112;0.984;2022-10-26T13:22:25;100537.17;;;21.79;50.20
42411;BME280;28056;51.112;0.984;2022-10-26T13:24:56;100538.55;;;20.83;52.51
42411;BME280;28056;51.112;0.984;2022-10-26T13:27:40;100544.93;;;21.11;51.79